Terminal Aerodrome Forecast
Issued by NWS Louisville, KY

Home | Current Version | Previous Version | Text Only | Print | Product List | Glossary On
Versions: 1 2 3 4 5 6 7 8 9 10 11 12 13 14 15 16 17 18
000
FTUS43 KLMK 292300
TAFLEX
TAF
KLEX 292329Z 3000/3024 27012G22KT P6SM VCSH SCT015 BKN025
     FM300200 30012KT P6SM -SHSN BKN015
     FM301200 33012KT P6SM -SHSN BKN025
     FM301800 34010KT P6SM BKN035=

USA.gov is the U.S. government's official web portal to all federal, state and local government web resources and services.